To NAV CANADA Home Page Login to a new session Search on AWWS site Disclaimer Vers la page française équivalente Tips FAQ What's new on the site To the Forecasts and Observations / NOTAM section To "File a Flight Plan" website Publications and other links Update of the User's profile FIC Telephone Numbers My Weather Data Folder Route Weather Data Regional Weather Data Local Weather Data To the Forecasts and Observations / NOTAM section
Request Generated 08/17/2018 at 14:39:54 UTC . Weather information available at that time is displayed.

METAR/TAF

CAPE DORSET/NU    (show WxCam)

SPECI CYTE 171430Z 29020G29KT 15SM SCT014 BKN065 05/03 A2949 RMK SC3SC4 SLP991=
METAR CYTE 171400Z 29019G24KT 15SM BKN014 BKN050 05/04 A2948 RMK SC5SC2 SLP988=
SPECI CYTE 171308Z 28013G19KT 15SM BKN014 BKN042 05/04 A2946 RMK SC5SC2 SLP981=
METAR CYTE 171300Z 28013KT 15SM -RA BKN014 BKN031 05/03 A2946 RMK SC5SC2 SLP981=
SPECI CYTE 171237Z 29011G18KT 15SM -RA BKN014 BKN031 04/03 A2945 RMK SC5SC2 SLP978=
SPECI CYTE 171228Z 28012G19KT 15SM BKN016 BKN031 04/03 A2944 RMK SC5SC2 SLP976=
SPECI CYTE 171221Z 28015KT 15SM -RA BKN016 BKN031 04/03 A2944 RMK SC5SC2 SLP975=
METAR CYTE 171200Z 30017KT 15SM -RA FEW009 BKN014 BKN038 04/03 A2942 RMK SF1SC5SC1 SLP968=

TAF CYTE 171238Z 1713/1801 30018G28KT P6SM FEW008 SCT015 OVC040 TEMPO
1713/1716 P6SM -RA OVC015
FM171600 30022G32KT P6SM SCT015 TEMPO 1716/1719 P6SM -RA BKN015
BECMG 1717/1719 27013KT
FM172300 25010KT P6SM SCT040 TEMPO 1723/1801 P6SM -RA BKN040
RMK NXT FCST BY 171900Z=
Your time UTC time
Weather data provided by Environment Canada and NAV CANADA